Time;durP1;ratioP1;P1;durP2;ratioP2;P2;SDS_P1;SDS_P2;PMS_P1;PMS_P2;Temp;Humidity;BMP_temperature;BMP_pressure;BME280_temperature;BME280_humidity;BME280_pressure;Samples;Min_cycle;Max_cycle;Signal;HPM_P1;HPM_P2
2021/01/09 02:15:40;;;;;;;15.55;9.43;;;-0.40;96.20;;;;;;6219492;22;20024;-86
2021/01/09 02:18:13;;;;;;;18.25;9.48;;;-0.40;96.40;;;;;;6222359;23;20044;-86
2021/01/09 02:20:48;;;;;;;19.58;9.15;;;-0.30;96.50;;;;;;6194701;23;20004;-86
2021/01/09 02:23:17;;;;;;;20.38;9.95;;;-0.30;96.30;;;;;;6194138;23;20004;-86
2021/01/09 02:26:08;;;;;;;22.17;10.50;;;-0.30;96.30;;;;;;6195050;23;20004;-86
2021/01/09 02:28:37;;;;;;;21.73;10.32;;;-0.30;96.10;;;;;;6191697;23;20024;-86
2021/01/09 02:31:12;;;;;;;17.75;10.68;;;-0.30;96.10;;;;;;6192411;23;20004;-86
2021/01/09 02:33:40;;;;;;;18.65;9.43;;;-0.40;96.30;;;;;;6218731;23;20055;-86
2021/01/09 02:36:12;;;;;;;22.40;10.35;;;-0.40;96.60;;;;;;6211635;23;20008;-87
2021/01/09 02:38:38;;;;;;;15.75;9.25;;;-0.40;96.50;;;;;;6192189;23;20005;-86
2021/01/09 02:41:04;;;;;;;18.60;9.70;;;-0.30;96.60;;;;;;6191401;23;20075;-86
2021/01/09 02:43:30;;;;;;;19.88;10.20;;;-0.30;96.50;;;;;;6192026;23;20094;-87
2021/01/09 02:45:55;;;;;;;19.42;9.98;;;-0.30;96.50;;;;;;6192992;23;19988;-87
2021/01/09 02:48:21;;;;;;;20.38;11.40;;;-0.30;96.30;;;;;;6192488;23;20106;-87
2021/01/09 02:50:47;;;;;;;15.10;8.90;;;-0.30;96.40;;;;;;6231304;23;20000;-86
2021/01/09 02:53:12;;;;;;;20.05;9.75;;;-0.30;96.60;;;;;;6237785;22;20008;-86
2021/01/09 02:55:38;;;;;;;20.00;9.57;;;-0.30;96.70;;;;;;6225571;23;19997;-86
2021/01/09 02:58:04;;;;;;;19.45;10.30;;;-0.30;96.60;;;;;;6195085;23;20333;-87
2021/01/09 03:00:29;;;;;;;21.90;11.50;;;-0.30;96.30;;;;;;6194637;23;20088;-87
2021/01/09 03:02:55;;;;;;;20.80;10.05;;;-0.30;96.40;;;;;;6193252;23;20005;-86
2021/01/09 03:05:20;;;;;;;19.70;9.82;;;-0.30;96.70;;;;;;6221429;23;19996;-86
2021/01/09 03:07:46;;;;;;;20.55;9.68;;;-0.30;96.80;;;;;;6210064;23;20044;-86
2021/01/09 03:10:12;;;;;;;20.17;9.50;;;-0.20;96.90;;;;;;6208775;23;20140;-86
2021/01/09 03:12:37;;;;;;;16.52;8.85;;;-0.20;96.60;;;;;;6219188;23;20055;-86
2021/01/09 03:15:04;;;;;;;21.15;10.85;;;-0.20;96.60;;;;;;6192373;23;20096;-86
2021/01/09 03:17:30;;;;;;;22.70;10.68;;;-0.20;96.30;;;;;;6218554;23;20394;-87
2021/01/09 03:19:55;;;;;;;21.08;11.65;;;-0.20;96.50;;;;;;6220954;23;20001;-87
2021/01/09 03:22:21;;;;;;;22.20;11.02;;;-0.30;96.40;;;;;;6224947;22;20001;-86
2021/01/09 03:24:47;;;;;;;21.10;10.60;;;-0.40;96.50;;;;;;6240161;22;20024;-86
2021/01/09 03:27:12;;;;;;;18.48;10.55;;;-0.40;96.80;;;;;;6233000;22;20016;-86
2021/01/09 03:29:38;;;;;;;18.23;9.35;;;-0.40;97.00;;;;;;6191968;23;20062;-86
2021/01/09 03:32:04;;;;;;;17.23;8.55;;;-0.40;97.20;;;;;;6189804;23;20036;-86
2021/01/09 03:34:30;;;;;;;19.80;11.10;;;-0.30;97.40;;;;;;6189909;23;20417;-86
2021/01/09 03:36:55;;;;;;;20.67;9.98;;;-0.30;97.20;;;;;;6215662;23;20032;-86
2021/01/09 03:39:21;;;;;;;17.75;9.68;;;-0.20;97.30;;;;;;6218209;23;20004;-86
2021/01/09 03:41:47;;;;;;;16.08;8.50;;;-0.20;97.40;;;;;;6193017;23;20011;-86
2021/01/09 03:44:12;;;;;;;15.32;8.45;;;-0.20;97.40;;;;;;6194902;23;20099;-85
2021/01/09 03:46:38;;;;;;;17.55;9.27;;;-0.10;97.40;;;;;;6195331;23;19997;-86
2021/01/09 03:49:04;;;;;;;17.80;9.45;;;-0.10;97.40;;;;;;6196703;23;20031;-86
2021/01/09 03:51:32;;;;;;;19.50;9.85;;;-0.20;97.30;;;;;;6191355;23;20007;-86
2021/01/09 03:53:58;;;;;;;16.63;9.27;;;-0.20;97.40;;;;;;6218211;23;20330;-86
2021/01/09 03:56:23;;;;;;;18.80;9.85;;;-0.20;97.20;;;;;;6193843;23;20028;-86
2021/01/09 03:58:49;;;;;;;18.40;9.20;;;-0.20;97.10;;;;;;6190232;23;20008;-86
2021/01/09 04:01:15;;;;;;;19.05;10.45;;;-0.30;97.20;;;;;;6191577;23;20032;-86
2021/01/09 04:03:40;;;;;;;18.63;10.10;;;-0.30;97.30;;;;;;6221591;23;20019;-86
2021/01/09 04:06:06;;;;;;;20.15;10.80;;;-0.30;97.30;;;;;;6192847;23;20005;-85
2021/01/09 04:08:32;;;;;;;17.33;9.93;;;-0.30;97.50;;;;;;6191924;23;20303;-87
2021/01/09 04:10:57;;;;;;;20.40;11.57;;;-0.30;97.30;;;;;;6215486;23;20498;-87
2021/01/09 04:13:23;;;;;;;17.05;9.50;;;-0.30;97.60;;;;;;6189984;23;20088;-86
2021/01/09 04:15:49;;;;;;;19.25;10.25;;;-0.30;97.80;;;;;;6215941;23;20038;-86
2021/01/09 04:18:14;;;;;;;19.88;11.18;;;-0.20;97.40;;;;;;6191121;23;20081;-86
2021/01/09 04:20:40;;;;;;;17.25;9.30;;;-0.20;97.10;;;;;;6189119;23;20062;-86
2021/01/09 04:23:06;;;;;;;17.30;10.10;;;-0.20;97.00;;;;;;6216548;23;20007;-87
2021/01/09 04:25:33;;;;;;;19.33;10.57;;;-0.20;96.70;;;;;;6192559;23;20428;-86
2021/01/09 04:27:58;;;;;;;18.70;10.57;;;-0.20;96.70;;;;;;6218147;23;20396;-86
2021/01/09 04:30:24;;;;;;;19.10;9.20;;;-0.30;96.90;;;;;;6191710;23;20001;-86
2021/01/09 04:32:50;;;;;;;19.15;10.38;;;-0.30;97.00;;;;;;6193715;23;19997;-86
2021/01/09 04:35:15;;;;;;;16.92;9.70;;;-0.30;97.10;;;;;;6195904;23;20432;-86
2021/01/09 04:37:41;;;;;;;20.50;11.82;;;-0.30;96.60;;;;;;6205409;23;20005;-86
2021/01/09 04:40:07;;;;;;;20.88;11.15;;;-0.20;96.80;;;;;;6236815;23;20000;-85
2021/01/09 04:42:35;;;;;;;19.13;9.75;;;-0.30;96.90;;;;;;6203157;23;20020;-86
2021/01/09 04:45:01;;;;;;;24.48;11.13;;;-0.30;97.20;;;;;;6195858;23;20012;-86
2021/01/09 04:47:29;;;;;;;19.52;9.73;;;-0.30;97.30;;;;;;6196751;23;20055;-87
2021/01/09 04:49:54;;;;;;;20.95;11.38;;;-0.30;97.20;;;;;;6193774;23;20083;-86
2021/01/09 04:52:20;;;;;;;18.77;11.18;;;-0.20;97.10;;;;;;6193661;23;20005;-86
2021/01/09 04:54:46;;;;;;;19.65;11.20;;;-0.30;97.00;;;;;;6218847;23;20031;-86
2021/01/09 04:57:12;;;;;;;22.08;11.15;;;-0.30;97.40;;;;;;6191324;23;20391;-86
2021/01/09 04:59:39;;;;;;;22.67;12.20;;;-0.30;97.60;;;;;;6191920;23;20004;-86
2021/01/09 05:02:07;;;;;;;19.70;10.75;;;-0.30;97.60;;;;;;6193364;23;20008;-86
2021/01/09 05:04:33;;;;;;;21.58;11.05;;;-0.30;97.80;;;;;;6193387;23;20517;-86
2021/01/09 05:06:58;;;;;;;20.05;10.63;;;-0.30;98.00;;;;;;6220455;23;20003;-87
2021/01/09 05:09:24;;;;;;;24.48;13.02;;;-0.30;97.50;;;;;;6218380;23;19997;-87
2021/01/09 05:11:56;;;;;;;19.52;10.23;;;-0.30;97.60;;;;;;6226875;23;20001;-86
2021/01/09 05:14:22;;;;;;;19.58;10.40;;;-0.30;97.90;;;;;;6190512;23;20016;-86
2021/01/09 05:16:48;;;;;;;21.15;11.07;;;-0.30;97.80;;;;;;6191120;23;20302;-85
2021/01/09 05:19:14;;;;;;;16.33;9.27;;;-0.30;97.90;;;;;;6192676;23;20392;-86
2021/01/09 05:21:40;;;;;;;18.27;10.10;;;-0.30;98.00;;;;;;6197871;23;20012;-85
2021/01/09 05:24:08;;;;;;;21.05;10.98;;;-0.20;97.30;;;;;;6223706;23;20024;-86
2021/01/09 05:26:36;;;;;;;20.95;11.52;;;-0.30;97.30;;;;;;6221766;23;20056;-85
2021/01/09 05:29:03;;;;;;;19.85;11.30;;;-0.30;97.60;;;;;;6222721;23;19996;-85
2021/01/09 05:31:36;;;;;;;19.88;11.00;;;-0.30;97.50;;;;;;6195095;23;20029;-85
2021/01/09 05:34:03;;;;;;;20.10;10.32;;;-0.40;97.80;;;;;;6223630;23;20366;-85
2021/01/09 05:36:29;;;;;;;23.17;12.05;;;-0.40;98.00;;;;;;6211415;22;19997;-85
2021/01/09 05:38:55;;;;;;;20.73;10.57;;;-0.40;97.90;;;;;;6205259;23;20063;-86
2021/01/09 05:41:22;;;;;;;19.83;10.20;;;-0.40;97.90;;;;;;6198445;23;20408;-85
2021/01/09 05:44:04;;;;;;;24.70;10.65;;;-0.40;97.70;;;;;;6197180;23;20012;-86
2021/01/09 05:46:33;;;;;;;19.55;11.10;;;-0.40;98.10;;;;;;6195947;23;20005;-85
2021/01/09 05:48:59;;;;;;;24.15;11.02;;;-0.40;97.70;;;;;;6225325;23;20020;-85
2021/01/09 05:51:28;;;;;;;19.38;11.05;;;-0.40;97.80;;;;;;6226287;23;20031;-85
2021/01/09 05:53:54;;;;;;;22.33;12.00;;;-0.30;97.70;;;;;;6197136;23;20008;-85
2021/01/09 05:56:23;;;;;;;20.88;11.13;;;-0.30;97.70;;;;;;6195546;23;20029;-84
2021/01/09 05:58:51;;;;;;;23.67;13.02;;;-0.30;97.50;;;;;;6196092;23;20009;-83
2021/01/09 06:01:27;;;;;;;24.23;12.35;;;-0.30;97.30;;;;;;6220572;23;20055;-83
2021/01/09 06:04:13;;;;;;;23.95;12.45;;;-0.40;97.30;;;;;;6196488;23;20436;-83
2021/01/09 06:07:14;;;;;;;24.13;11.73;;;-0.40;97.20;;;;;;6194092;23;20339;-83
2021/01/09 06:09:56;;;;;;;21.70;11.27;;;-0.50;97.10;;;;;;6206885;23;20088;-81
2021/01/09 06:12:22;;;;;;;21.05;10.50;;;-0.50;97.30;;;;;;6196696;23;20011;-83
2021/01/09 06:14:54;;;;;;;22.15;11.75;;;-0.50;97.20;;;;;;6222153;23;20032;-86
2021/01/09 06:17:24;;;;;;;20.00;10.40;;;-0.40;97.10;;;;;;6194811;23;20017;-83
2021/01/09 06:19:50;;;;;;;22.30;11.88;;;-0.40;97.30;;;;;;6200126;23;20001;-84
2021/01/09 06:22:17;;;;;;;17.83;9.60;;;-0.40;97.20;;;;;;6223754;23;20015;-84
2021/01/09 06:24:45;;;;;;;19.85;10.10;;;-0.40;97.30;;;;;;6230939;23;20005;-84
2021/01/09 06:27:18;;;;;;;19.08;10.98;;;-0.30;97.20;;;;;;6214405;23;20060;-86
2021/01/09 06:29:48;;;;;;;16.02;9.65;;;-0.30;96.80;;;;;;6210818;23;20072;-85
2021/01/09 06:32:19;;;;;;;17.40;8.90;;;-0.20;96.90;;;;;;6205256;23;20009;-84
2021/01/09 06:34:49;;;;;;;15.65;8.88;;;-0.20;97.00;;;;;;6209749;23;20012;-84
2021/01/09 06:37:20;;;;;;;26.98;14.25;;;-0.10;97.00;;;;;;6209070;23;20237;-86
2021/01/09 06:39:46;;;;;;;25.55;14.05;;;-0.10;96.50;;;;;;6239576;23;20282;-84
2021/01/09 06:42:12;;;;;;;19.25;10.13;;;-0.10;96.40;;;;;;6212026;23;20095;-84
2021/01/09 06:44:39;;;;;;;17.63;9.43;;;-0.10;95.40;;;;;;6201190;23;20017;-84
2021/01/09 06:47:04;;;;;;;18.30;9.73;;;-0.10;95.80;;;;;;6202030;23;20001;-85
2021/01/09 06:49:30;;;;;;;18.13;9.75;;;-0.10;95.90;;;;;;6227853;23;20060;-84
2021/01/09 06:52:02;;;;;;;18.20;10.70;;;-0.10;96.10;;;;;;6202519;23;20428;-85
2021/01/09 06:54:29;;;;;;;17.08;9.90;;;0.00;95.80;;;;;;6208546;23;20032;-85
2021/01/09 06:57:03;;;;;;;19.73;11.27;;;-0.10;96.00;;;;;;6226457;23;20000;-84
2021/01/09 06:59:33;;;;;;;23.30;12.05;;;-0.10;95.90;;;;;;6195060;23;19992;-83
2021/01/09 07:02:27;;;;;;;17.95;10.73;;;-0.10;95.50;;;;;;6194401;23;20004;-83
2021/01/09 07:04:57;;;;;;;21.10;11.10;;;-0.10;95.50;;;;;;6194902;23;20035;-83
2021/01/09 07:07:53;;;;;;;20.73;11.32;;;-0.10;95.50;;;;;;6197062;23;20059;-83
2021/01/09 07:10:22;;;;;;;23.75;11.63;;;-0.10;95.60;;;;;;6192973;23;20026;-85
2021/01/09 07:13:06;;;;;;;21.20;11.80;;;-0.10;95.60;;;;;;6195518;23;20298;-85
2021/01/09 07:15:35;;;;;;;24.35;12.25;;;-0.10;95.80;;;;;;6224118;23;20000;-85
2021/01/09 07:18:03;;;;;;;20.52;11.57;;;-0.10;96.20;;;;;;6223128;23;20032;-84
2021/01/09 07:20:37;;;;;;;18.98;11.35;;;-0.20;96.40;;;;;;6198773;23;20421;-83
2021/01/09 07:23:06;;;;;;;23.00;12.45;;;-0.10;96.60;;;;;;6196870;23;20340;-83
2021/01/09 07:25:44;;;;;;;20.73;11.68;;;-0.10;96.30;;;;;;6198249;23;20000;-83
2021/01/09 07:28:11;;;;;;;19.75;11.02;;;-0.10;96.30;;;;;;6227636;23;20023;-83
2021/01/09 07:30:37;;;;;;;22.67;12.80;;;-0.10;95.90;;;;;;6225498;23;20000;-84
2021/01/09 07:33:06;;;;;;;18.73;10.20;;;-0.10;95.80;;;;;;6197080;23;20008;-83
2021/01/09 07:35:32;;;;;;;22.20;11.25;;;-0.10;96.10;;;;;;6198858;23;20270;-83
2021/01/09 07:38:04;;;;;;;21.58;11.45;;;0.00;96.20;;;;;;6224290;23;20072;-84
2021/01/09 07:40:55;;;;;;;18.30;11.07;;;0.00;96.00;;;;;;6197515;23;20043;-83
2021/01/09 07:43:47;;;;;;;18.80;11.07;;;0.10;95.80;;;;;;6198788;23;20420;-84
2021/01/09 07:46:30;;;;;;;24.13;12.38;;;0.10;95.30;;;;;;6219947;23;20004;-84
2021/01/09 07:49:00;;;;;;;19.83;10.88;;;0.10;95.50;;;;;;6199578;23;20028;-84
2021/01/09 07:51:47;;;;;;;22.00;11.73;;;0.10;95.80;;;;;;6223941;23;20008;-85
2021/01/09 07:54:29;;;;;;;20.65;11.10;;;0.20;95.80;;;;;;6200663;23;20012;-84
2021/01/09 07:56:55;;;;;;;21.55;10.90;;;0.30;95.50;;;;;;6202332;23;20066;-84
2021/01/09 07:59:21;;;;;;;16.30;9.23;;;0.40;95.60;;;;;;6201351;23;20091;-84
2021/01/09 08:01:47;;;;;;;19.75;10.65;;;0.50;95.50;;;;;;6200051;23;20008;-84
2021/01/09 08:04:12;;;;;;;21.17;11.57;;;0.60;95.40;;;;;;6200247;23;20032;-83
2021/01/09 08:06:42;;;;;;;24.58;12.85;;;0.60;94.70;;;;;;6198543;23;20088;-83
2021/01/09 08:09:09;;;;;;;23.55;11.55;;;0.60;94.30;;;;;;6197596;23;20005;-83
2021/01/09 08:11:47;;;;;;;18.52;10.98;;;0.60;94.60;;;;;;6199325;23;20058;-83
2021/01/09 08:14:13;;;;;;;17.60;11.07;;;0.60;94.80;;;;;;6196402;23;20008;-84
2021/01/09 08:16:42;;;;;;;21.55;11.90;;;0.60;94.30;;;;;;6219829;23;20380;-85
2021/01/09 08:19:17;;;;;;;24.52;12.82;;;0.50;94.10;;;;;;6193247;23;20005;-84
2021/01/09 08:21:47;;;;;;;21.33;11.27;;;0.50;94.30;;;;;;6194212;23;20036;-85
2021/01/09 08:24:26;;;;;;;20.95;12.18;;;0.50;94.80;;;;;;6223711;23;20005;-84
2021/01/09 08:26:56;;;;;;;20.25;10.43;;;0.40;94.60;;;;;;6199812;23;20097;-86
2021/01/09 08:29:26;;;;;;;15.60;10.48;;;0.40;94.80;;;;;;6194153;23;20000;-86
2021/01/09 08:31:54;;;;;;;18.10;10.07;;;0.40;94.60;;;;;;6196044;23;20011;-86
2021/01/09 08:34:23;;;;;;;17.42;10.13;;;0.40;94.90;;;;;;6196292;23;20253;-86
2021/01/09 08:36:52;;;;;;;19.33;9.90;;;0.30;94.70;;;;;;6211902;23;20001;-85
2021/01/09 08:39:18;;;;;;;18.02;9.45;;;0.30;94.70;;;;;;6210337;23;20154;-85
2021/01/09 08:41:43;;;;;;;20.27;9.68;;;0.30;94.40;;;;;;6191572;23;20100;-85
2021/01/09 08:44:13;;;;;;;13.70;8.20;;;0.30;93.60;;;;;;6189885;23;20012;-86
2021/01/09 08:46:44;;;;;;;15.60;8.73;;;0.30;93.30;;;;;;6193170;23;20088;-85
2021/01/09 08:49:25;;;;;;;18.52;10.63;;;0.30;93.10;;;;;;6191346;23;20007;-85
2021/01/09 08:52:11;;;;;;;16.88;10.00;;;0.30;92.70;;;;;;6191537;23;20066;-85
2021/01/09 08:54:43;;;;;;;15.07;8.73;;;0.20;92.00;;;;;;6217024;23;20381;-85
2021/01/09 08:57:09;;;;;;;16.40;8.67;;;0.20;92.60;;;;;;6199957;23;20027;-85
2021/01/09 08:59:36;;;;;;;16.88;9.50;;;0.30;92.20;;;;;;6225829;23;20232;-86
2021/01/09 09:02:07;;;;;;;14.98;8.30;;;0.30;91.90;;;;;;6219859;23;20016;-85
2021/01/09 09:04:33;;;;;;;16.57;9.30;;;0.30;91.80;;;;;;6219484;23;20397;-86
2021/01/09 09:07:04;;;;;;;13.60;8.60;;;0.30;91.60;;;;;;6194184;23;20437;-86
2021/01/09 09:09:32;;;;;;;12.77;8.15;;;0.40;91.50;;;;;;6194792;23;20008;-84
2021/01/09 09:11:58;;;;;;;15.73;8.60;;;0.40;91.60;;;;;;6197045;23;20001;-84
2021/01/09 09:14:33;;;;;;;14.85;8.55;;;0.50;91.40;;;;;;6224721;23;20084;-85
2021/01/09 09:17:01;;;;;;;14.85;7.65;;;0.50;90.80;;;;;;6197608;23;20017;-85
2021/01/09 09:19:27;;;;;;;14.93;8.15;;;0.60;90.70;;;;;;6196490;23;20023;-84
2021/01/09 09:21:58;;;;;;;17.52;8.70;;;0.60;90.20;;;;;;6197341;23;20120;-85
2021/01/09 09:24:57;;;;;;;15.55;7.50;;;0.60;90.40;;;;;;6197120;23;20444;-85
2021/01/09 09:27:27;;;;;;;13.90;7.97;;;0.60;89.60;;;;;;6161630;23;20004;-84
2021/01/09 09:30:13;;;;;;;12.95;7.32;;;0.60;90.00;;;;;;6239507;23;20000;-84
2021/01/09 09:32:45;;;;;;;14.27;8.00;;;0.60;90.30;;;;;;6199034;23;20001;-85
2021/01/09 09:35:29;;;;;;;14.95;8.38;;;0.60;90.20;;;;;;6198894;23;20005;-84
2021/01/09 09:37:59;;;;;;;15.65;9.10;;;0.50;89.70;;;;;;6195142;23;20004;-84
2021/01/09 09:40:25;;;;;;;16.00;8.73;;;0.40;90.10;;;;;;6205395;23;20064;-84
2021/01/09 09:42:53;;;;;;;15.27;8.52;;;0.40;90.50;;;;;;6213317;23;20024;-84
2021/01/09 09:45:20;;;;;;;14.45;8.52;;;0.40;90.50;;;;;;6205004;23;20047;-84
2021/01/09 09:47:50;;;;;;;12.48;7.15;;;0.50;90.80;;;;;;6193632;23;20285;-85
2021/01/09 09:50:20;;;;;;;12.18;6.95;;;0.60;90.90;;;;;;6195109;23;20001;-85
2021/01/09 09:52:59;;;;;;;15.95;8.73;;;0.90;90.70;;;;;;6195198;23;20005;-84
2021/01/09 09:55:26;;;;;;;13.75;7.32;;;1.00;89.10;;;;;;6199094;23;20012;-84
2021/01/09 09:58:08;;;;;;;12.98;6.68;;;1.10;89.80;;;;;;6204481;23;20005;-84
2021/01/09 10:00:44;;;;;;;;;;;1.20;88.40;;;;;;6211259;23;20054;-86
2021/01/09 10:03:21;;;;;;;17.70;9.43;;;;;;;;;;6199116;23;19900;-83
2021/01/09 10:06:02;;;;;;;18.83;8.80;;;1.00;86.70;;;;;;6219984;23;20004;-84
2021/01/09 10:08:28;;;;;;;15.38;8.43;;;1.00;88.70;;;;;;6219854;23;20417;-85
2021/01/09 10:10:54;;;;;;;16.73;9.05;;;1.20;89.50;;;;;;6194439;23;20000;-85
2021/01/09 10:13:27;;;;;;;14.57;8.70;;;1.40;88.40;;;;;;6192917;23;20039;-84
2021/01/09 10:15:52;;;;;;;14.95;8.40;;;1.50;86.70;;;;;;6194627;23;20091;-85
2021/01/09 10:18:18;;;;;;;15.38;8.55;;;1.60;87.20;;;;;;6195817;23;20063;-85
2021/01/09 10:20:44;;;;;;;15.85;9.73;;;1.60;86.80;;;;;;6219071;23;19993;-85
2021/01/09 10:23:17;;;;;;;16.70;9.07;;;1.60;86.30;;;;;;6194083;23;20048;-85
2021/01/09 10:25:43;;;;;;;20.70;9.88;;;1.70;86.00;;;;;;6191168;23;20063;-85
2021/01/09 10:28:09;;;;;;;14.60;8.70;;;1.70;86.10;;;;;;6194411;23;20060;-85
2021/01/09 10:30:35;;;;;;;16.35;9.25;;;1.80;85.40;;;;;;6220492;23;20001;-85
2021/01/09 10:33:02;;;;;;;21.23;10.55;;;2.00;84.90;;;;;;6193763;23;20005;-84
2021/01/09 10:35:28;;;;;;;14.13;9.18;;;2.10;83.70;;;;;;6192366;23;20463;-84
2021/01/09 10:37:53;;;;;;;16.55;8.95;;;2.20;83.70;;;;;;6194531;23;20005;-85
2021/01/09 10:40:19;;;;;;;16.63;8.88;;;2.30;83.20;;;;;;6192480;23;20004;-85
2021/01/09 10:42:45;;;;;;;14.27;8.13;;;;;;;;;;6198886;23;20001;-85
2021/01/09 10:45:15;;;;;;;18.73;10.43;;;2.10;81.20;;;;;;6220310;23;20016;-85
2021/01/09 10:47:42;;;;;;;17.73;10.00;;;2.10;82.20;;;;;;6193473;23;20000;-84
2021/01/09 10:50:11;;;;;;;18.48;10.98;;;2.00;81.80;;;;;;6194567;23;20336;-85
2021/01/09 10:52:36;;;;;;;18.30;11.30;;;1.80;83.10;;;;;;6195025;23;20000;-87
2021/01/09 10:55:04;;;;;;;18.23;10.77;;;1.70;83.20;;;;;;6193332;23;20472;-86
2021/01/09 10:57:30;;;;;;;17.45;9.05;;;1.50;83.10;;;;;;6193664;23;20008;-84
2021/01/09 10:59:55;;;;;;;12.57;7.80;;;1.50;84.70;;;;;;6194806;23;20005;-84
2021/01/09 11:02:21;;;;;;;13.98;8.25;;;1.70;85.10;;;;;;6192629;23;20074;-84
2021/01/09 11:04:47;;;;;;;14.70;6.93;;;2.00;83.50;;;;;;6219770;23;19996;-84
2021/01/09 11:07:12;;;;;;;11.13;7.38;;;2.40;83.30;;;;;;6220189;23;20008;-84
2021/01/09 11:09:38;;;;;;;14.38;9.18;;;2.90;95.50;;;;;;6193144;23;20007;-85
2021/01/09 11:12:04;;;;;;;13.70;7.60;;;3.10;76.40;;;;;;6220144;23;20014;-84
2021/01/09 11:14:30;;;;;;;16.73;10.60;;;3.40;76.90;;;;;;6195021;23;20059;-84
2021/01/09 11:16:57;;;;;;;15.50;9.57;;;3.70;74.00;;;;;;6193627;23;20012;-83
2021/01/09 11:19:22;;;;;;;11.50;7.13;;;3.80;75.70;;;;;;6205530;23;20024;-84
2021/01/09 11:21:48;;;;;;;15.23;9.00;;;4.20;76.70;;;;;;6214421;23;20025;-84
2021/01/09 11:24:14;;;;;;;18.08;10.38;;;4.40;72.70;;;;;;6214413;22;20020;-85
2021/01/09 11:26:40;;;;;;;15.70;9.63;;;4.50;71.70;;;;;;6239269;22;20028;-85
2021/01/09 11:29:06;;;;;;;15.25;9.55;;;4.50;70.80;;;;;;6214513;23;20000;-85
2021/01/09 11:31:32;;;;;;;18.40;11.38;;;4.40;71.30;;;;;;6214150;22;19992;-85
2021/01/09 11:33:58;;;;;;;16.58;10.00;;;4.20;71.00;;;;;;6214247;23;20000;-85
2021/01/09 11:36:23;;;;;;;15.77;9.73;;;4.10;71.10;;;;;;6212651;23;20008;-84
2021/01/09 11:38:49;;;;;;;15.25;10.48;;;4.10;71.70;;;;;;6238216;23;19991;-85
2021/01/09 11:41:15;;;;;;;16.35;10.25;;;4.10;72.60;;;;;;6210716;23;20024;-85
2021/01/09 11:43:45;;;;;;;20.30;12.27;;;4.10;73.00;;;;;;6204544;23;20008;-85
2021/01/09 11:46:13;;;;;;;16.95;10.43;;;3.70;73.20;;;;;;6199818;23;20031;-85
2021/01/09 11:48:42;;;;;;;13.65;9.20;;;3.40;74.30;;;;;;6199516;23;20001;-85
2021/01/09 11:51:45;;;;;;;15.27;9.57;;;3.00;76.10;;;;;;6231743;22;19985;-85
2021/01/09 11:54:11;;;;;;;17.10;10.30;;;2.60;77.80;;;;;;6220064;23;20016;-85
2021/01/09 11:56:36;;;;;;;17.00;9.93;;;2.40;79.30;;;;;;6206608;23;20008;-86
2021/01/09 11:59:02;;;;;;;17.35;10.25;;;2.20;80.10;;;;;;6200747;23;20019;-86
2021/01/09 12:01:38;;;;;;;18.05;10.70;;;2.00;81.30;;;;;;6196883;23;20032;-84
2021/01/09 12:04:04;;;;;;;16.52;9.95;;;1.80;82.40;;;;;;6195789;23;20024;-83
2021/01/09 12:06:30;;;;;;;18.95;11.00;;;1.60;83.50;;;;;;6190970;23;20001;-86
2021/01/09 12:08:56;;;;;;;19.58;11.00;;;1.50;84.60;;;;;;6189614;23;20001;-83
2021/01/09 12:11:22;;;;;;;19.23;12.07;;;1.50;85.50;;;;;;6216943;23;20142;-86
2021/01/09 12:13:48;;;;;;;22.77;12.43;;;1.40;85.90;;;;;;6189757;23;20008;-86
2021/01/09 12:16:14;;;;;;;27.00;11.82;;;1.40;86.30;;;;;;6189370;23;20395;-84
2021/01/09 12:18:40;;;;;;;16.92;10.60;;;1.60;86.40;;;;;;6191764;23;20340;-83
2021/01/09 12:21:06;;;;;;;13.35;8.88;;;1.80;85.90;;;;;;6194458;23;20028;-85
2021/01/09 12:23:40;;;;;;;14.50;9.63;;;2.00;84.40;;;;;;6203310;23;20052;-84
2021/01/09 12:26:06;;;;;;;15.20;8.43;;;1.90;84.20;;;;;;6203449;23;20083;-84
2021/01/09 12:28:36;;;;;;;13.45;7.95;;;1.90;84.50;;;;;;6196050;23;20008;-84
2021/01/09 12:31:01;;;;;;;19.33;7.10;;;1.90;84.60;;;;;;6191980;23;20023;-83
2021/01/09 12:33:30;;;;;;;11.77;7.07;;;1.90;83.40;;;;;;6191356;23;20062;-85
2021/01/09 12:35:56;;;;;;;8.00;5.28;;;1.90;81.40;;;;;;6190848;23;20004;-84
2021/01/09 12:38:24;;;;;;;18.08;9.65;;;1.90;80.80;;;;;;6219176;23;20317;-84
2021/01/09 12:40:50;;;;;;;29.55;19.35;;;1.90;79.50;;;;;;6190688;23;20039;-84
2021/01/09 12:47:24;;;;;;;23.27;14.52;;;1.90;80.30;;;;;;6221216;23;20076;-84
2021/01/09 12:57:16;;;;;;;19.58;12.35;;;1.90;84.60;;;;;;6145368;23;20052;-85
2021/01/09 12:59:52;;;;;;;23.77;13.32;;;1.80;85.30;;;;;;6120887;23;20014;-84
2021/01/09 13:02:53;;;;;;;18.52;11.65;;;1.60;86.30;;;;;;6125432;23;20137;-84
2021/01/09 13:05:22;;;;;;;24.83;13.18;;;1.50;88.00;;;;;;6103290;23;20469;-83
2021/01/09 13:08:20;;;;;;;23.17;13.05;;;1.40;88.00;;;;;;6129280;23;20006;-85
2021/01/09 13:10:47;;;;;;;20.27;12.48;;;1.30;88.20;;;;;;6100194;23;20621;-83
2021/01/09 13:13:27;;;;;;;23.88;12.00;;;1.30;88.70;;;;;;6135020;23;20001;-83
2021/01/09 13:22:36;;;;;;;15.88;9.23;;;1.50;87.70;;;;;;6150051;23;20028;-86
2021/01/09 13:25:03;;;;;;;17.58;9.50;;;1.70;87.60;;;;;;6110201;23;20361;-86
2021/01/09 13:27:29;;;;;;;13.07;8.75;;;1.90;86.70;;;;;;6180559;23;20012;-86
2021/01/09 13:29:54;;;;;;;15.98;9.55;;;2.00;85.70;;;;;;6175262;23;20012;-85
2021/01/09 13:32:25;;;;;;;11.68;8.07;;;2.20;84.80;;;;;;6222694;23;20051;-87
2021/01/09 13:34:51;;;;;;;14.63;8.43;;;;;;;;;;6193166;23;20064;-86
2021/01/09 13:37:17;;;;;;;13.38;8.57;;;2.60;91.30;;;;;;6216936;23;20012;-86
2021/01/09 13:39:43;;;;;;;15.93;9.68;;;2.90;82.00;;;;;;6193272;23;20004;-85
2021/01/09 13:42:09;;;;;;;16.55;8.57;;;2.90;81.20;;;;;;6201130;23;20005;-85
2021/01/09 13:44:36;;;;;;;17.20;9.95;;;2.90;80.80;;;;;;6232470;23;20044;-86
2021/01/09 13:47:34;;;;;;;15.80;9.65;;;;;;;;;;6193969;23;20001;-86
2021/01/09 13:50:01;;;;;;;15.30;9.75;;;2.70;97.70;;;;;;6212313;23;20005;-83
2021/01/09 13:52:32;;;;;;;16.33;10.00;;;2.20;82.10;;;;;;6169106;23;20024;-85
2021/01/09 13:55:24;;;;;;;17.13;10.00;;;;;;;;;;6197170;23;20009;-83
2021/01/09 13:58:53;;;;;;;13.85;8.88;;;1.90;99.90;;;;;;6197789;23;20020;-82
2021/01/09 14:01:43;;;;;;;19.83;11.20;;;;;;;;;;6227341;23;20019;-83
2021/01/09 14:04:30;;;;;;;19.80;10.95;;;1.50;85.70;;;;;;6201839;23;20071;-83
2021/01/09 14:07:41;;;;;;;18.42;10.55;;;1.30;87.20;;;;;;6163935;23;20572;-82
2021/01/09 14:10:38;;;;;;;17.83;10.00;;;;;;;;;;6142913;23;20402;-82
2021/01/09 14:14:13;;;;;;;15.65;9.27;;;1.00;88.80;;;;;;6107131;23;20017;-82
2021/01/09 14:17:36;;;;;;;15.80;9.88;;;0.90;90.20;;;;;;6159075;23;20005;-80
2021/01/09 14:21:05;;;;;;;19.67;11.35;;;0.90;90.60;;;;;;6072044;23;20055;-80
2021/01/09 14:30:34;;;;;;;29.02;15.93;;;0.90;91.00;;;;;;6013102;23;20465;-80
2021/01/09 14:32:59;;;;;;;28.27;15.80;;;0.80;91.50;;;;;;5996377;23;20115;-80
2021/01/09 14:35:25;;;;;;;27.48;16.33;;;0.60;92.00;;;;;;6060234;23;20048;-81
2021/01/09 14:37:51;;;;;;;30.17;16.77;;;0.50;92.60;;;;;;6185411;23;20008;-80
2021/01/09 14:40:16;;;;;;;30.20;17.42;;;0.40;93.10;;;;;;6217918;23;20436;-80
2021/01/09 14:42:42;;;;;;;28.15;16.25;;;0.40;93.50;;;;;;6192786;23;20012;-80
2021/01/09 14:45:08;;;;;;;27.95;15.13;;;0.40;94.40;;;;;;6219653;23;20015;-80
2021/01/09 14:47:34;;;;;;;26.52;14.57;;;0.40;95.60;;;;;;6219054;23;20072;-80
2021/01/09 14:49:59;;;;;;;28.05;14.88;;;0.30;94.30;;;;;;6219765;23;20007;-80
2021/01/09 14:52:25;;;;;;;26.02;15.55;;;0.30;94.40;;;;;;6192720;23;20310;-80
2021/01/09 14:54:51;;;;;;;26.77;14.32;;;0.30;94.60;;;;;;6219522;23;20005;-80
2021/01/09 14:57:18;;;;;;;26.55;15.38;;;0.30;94.70;;;;;;6191773;23;20004;-80
2021/01/09 14:59:44;;;;;;;30.23;15.70;;;0.20;94.90;;;;;;6194726;23;20012;-81
2021/01/09 15:02:10;;;;;;;27.75;15.57;;;0.20;95.00;;;;;;6194135;23;20008;-81
2021/01/09 15:04:35;;;;;;;25.10;13.98;;;0.20;95.20;;;;;;6194935;23;20016;-81
2021/01/09 15:07:01;;;;;;;22.63;13.65;;;0.20;95.50;;;;;;6196527;23;20005;-81
2021/01/09 15:09:27;;;;;;;27.00;15.60;;;0.20;95.70;;;;;;6199106;23;20001;-81
2021/01/09 15:11:52;;;;;;;26.73;14.13;;;0.10;95.70;;;;;;6228030;23;20052;-81
2021/01/09 15:14:18;;;;;;;24.80;14.10;;;0.10;95.80;;;;;;6207385;23;20004;-80
2021/01/09 15:16:44;;;;;;;24.67;14.93;;;0.10;95.80;;;;;;6210040;23;20035;-80
2021/01/09 15:19:19;;;;;;;24.52;13.35;;;0.00;95.80;;;;;;6210877;23;20024;-81
2021/01/09 15:21:47;;;;;;;27.80;13.80;;;0.00;95.90;;;;;;6235381;23;19993;-81
2021/01/09 15:24:13;;;;;;;22.23;13.30;;;0.00;96.00;;;;;;6222101;23;20005;-81
2021/01/09 15:26:40;;;;;;;26.05;14.77;;;-0.10;95.60;;;;;;6220952;23;20011;-81
2021/01/09 15:29:06;;;;;;;23.15;12.52;;;-0.10;95.40;;;;;;6197613;23;20000;-81
2021/01/09 15:31:33;;;;;;;22.25;12.85;;;-0.20;95.50;;;;;;6222695;23;20005;-80
2021/01/09 15:33:59;;;;;;;25.70;14.55;;;-0.20;95.70;;;;;;6199387;23;20028;-82